Time;durP1;ratioP1;P1;durP2;ratioP2;P2;SDS_P1;SDS_P2;PMS_P1;PMS_P2;Temp;Humidity;BMP_temperature;BMP_pressure;BME280_temperature;BME280_humidity;BME280_pressure;Samples;Min_cycle;Max_cycle;Signal;HPM_P1;HPM_P2
2022/01/01 00:00:35;;;;;;;6.50;2.90;;;9.30;99.90;;;;;;5050970;28;20084;-82
2022/01/01 00:03:00;;;;;;;5.00;3.00;;;9.20;99.90;;;;;;5035584;28;20288;-82
2022/01/01 00:05:26;;;;;;;5.30;3.20;;;9.30;99.90;;;;;;5043319;28;20083;-84
2022/01/01 00:07:52;;;;;;;7.17;3.23;;;9.20;99.90;;;;;;5032792;28;20083;-84
2022/01/01 00:10:19;;;;;;;6.07;3.00;;;9.20;99.90;;;;;;5038511;28;20056;-83
2022/01/01 00:12:46;;;;;;;5.83;2.77;;;9.30;99.90;;;;;;5035381;28;20049;-83
2022/01/01 00:15:13;;;;;;;4.67;2.90;;;9.30;99.90;;;;;;5032298;28;20021;-85
2022/01/01 00:17:39;;;;;;;4.20;3.00;;;9.20;99.90;;;;;;5031998;28;20093;-82
2022/01/01 00:20:05;;;;;;;4.70;3.10;;;9.20;99.90;;;;;;5036702;28;20140;-82
2022/01/01 00:22:31;;;;;;;4.70;2.90;;;9.20;99.90;;;;;;5038223;28;20036;-83
2022/01/01 00:24:57;;;;;;;5.37;2.67;;;9.10;99.90;;;;;;5030830;28;20029;-83
2022/01/01 00:27:22;;;;;;;6.53;3.30;;;9.10;99.90;;;;;;5031019;28;20677;-83
2022/01/01 00:29:48;;;;;;;8.70;3.50;;;9.10;99.90;;;;;;5031457;28;20044;-84
2022/01/01 00:32:13;;;;;;;4.33;3.07;;;9.00;99.90;;;;;;5031152;28;20355;-83
2022/01/01 00:34:39;;;;;;;4.50;3.00;;;9.00;99.90;;;;;;5031062;28;20093;-78
2022/01/01 00:37:05;;;;;;;4.43;3.40;;;8.90;99.90;;;;;;5028434;28;20386;-79
2022/01/01 00:39:31;;;;;;;6.53;3.27;;;8.80;99.90;;;;;;5030933;28;20064;-79
2022/01/01 00:41:57;;;;;;;5.30;3.53;;;8.80;99.90;;;;;;5024781;28;20089;-79
2022/01/01 00:44:22;;;;;;;6.93;3.83;;;8.70;99.90;;;;;;5010675;28;20026;-78
2022/01/01 00:46:48;;;;;;;5.73;3.67;;;8.60;99.90;;;;;;5032918;28;20100;-77
2022/01/01 00:49:13;;;;;;;8.43;4.27;;;8.60;99.90;;;;;;5043586;28;20025;-76
2022/01/01 00:51:39;;;;;;;8.30;4.37;;;8.50;99.90;;;;;;5034149;28;20018;-76
2022/01/01 00:54:05;;;;;;;7.90;4.80;;;8.40;99.90;;;;;;5031234;28;20029;-76
2022/01/01 00:56:30;;;;;;;7.57;4.77;;;8.30;99.90;;;;;;5031508;28;20055;-76
2022/01/01 00:58:56;;;;;;;10.43;6.87;;;8.20;99.90;;;;;;5031119;28;20101;-76
2022/01/01 01:01:22;;;;;;;13.70;6.83;;;8.10;99.90;;;;;;5031437;28;20026;-76
2022/01/01 01:03:47;;;;;;;9.87;5.97;;;8.00;99.90;;;;;;5029834;28;20068;-76
2022/01/01 01:06:14;;;;;;;8.57;5.30;;;7.90;99.90;;;;;;5031369;28;20553;-76
2022/01/01 01:08:40;;;;;;;9.73;5.13;;;7.90;99.90;;;;;;5031104;28;20106;-76
2022/01/01 01:11:08;;;;;;;7.53;4.27;;;7.80;99.90;;;;;;5031317;28;20049;-76
2022/01/01 01:13:39;;;;;;;7.27;4.70;;;7.80;99.90;;;;;;5034643;28;20532;-77
2022/01/01 01:16:05;;;;;;;6.43;4.10;;;7.80;99.90;;;;;;5035723;28;20021;-77
2022/01/01 01:18:31;;;;;;;5.53;3.73;;;7.80;99.90;;;;;;5033812;28;20021;-77
2022/01/01 01:20:56;;;;;;;5.57;3.90;;;7.70;99.90;;;;;;5034240;28;20065;-77
2022/01/01 01:23:22;;;;;;;5.30;3.77;;;7.70;99.90;;;;;;5035193;28;20029;-77
2022/01/01 01:25:48;;;;;;;5.47;3.63;;;7.60;99.90;;;;;;5035295;28;20079;-77
2022/01/01 01:28:14;;;;;;;5.20;3.50;;;7.60;99.90;;;;;;5053710;28;20029;-77
2022/01/01 01:30:41;;;;;;;5.63;3.70;;;7.50;99.90;;;;;;5055267;28;20029;-77
2022/01/01 01:33:08;;;;;;;6.07;4.07;;;7.50;99.90;;;;;;5053548;28;20474;-77
2022/01/01 01:35:34;;;;;;;6.37;4.30;;;7.40;99.90;;;;;;5038868;28;20021;-77
2022/01/01 01:38:00;;;;;;;5.90;3.90;;;7.40;99.90;;;;;;5035048;28;20072;-77
2022/01/01 01:40:26;;;;;;;8.27;4.83;;;7.30;99.90;;;;;;5035317;28;20061;-77
2022/01/01 01:42:52;;;;;;;6.27;3.90;;;7.30;99.90;;;;;;5034417;28;20128;-77
2022/01/01 01:45:20;;;;;;;7.90;4.20;;;7.20;99.90;;;;;;5046738;28;20025;-77
2022/01/01 01:47:48;;;;;;;6.27;4.37;;;7.20;99.90;;;;;;5055068;28;20071;-77
2022/01/01 01:50:15;;;;;;;6.67;4.17;;;7.20;99.90;;;;;;5039349;28;20021;-77
2022/01/01 01:52:45;;;;;;;7.23;4.20;;;7.10;99.90;;;;;;5034511;28;20028;-77
2022/01/01 01:55:12;;;;;;;6.53;4.40;;;7.10;99.90;;;;;;5034839;28;20108;-77
2022/01/01 01:57:39;;;;;;;7.17;4.30;;;7.10;99.90;;;;;;5034842;28;20367;-77
2022/01/01 02:02:51;;;;;;;6.50;4.60;;;7.10;99.90;;;;;;5034525;28;20044;-77
2022/01/01 02:05:16;;;;;;;5.60;3.90;;;7.10;99.90;;;;;;5016800;28;20026;-77
2022/01/01 02:07:43;;;;;;;5.50;3.40;;;7.00;99.90;;;;;;5014650;28;20026;-76
2022/01/01 02:10:09;;;;;;;8.33;3.53;;;7.00;99.90;;;;;;5014815;28;20116;-76
2022/01/01 02:12:34;;;;;;;6.17;3.60;;;7.00;99.90;;;;;;5014605;28;20101;-76
2022/01/01 02:17:29;;;;;;;4.83;3.30;;;6.90;99.90;;;;;;5034195;28;20021;-76
2022/01/01 02:20:00;;;;;;;5.10;3.47;;;6.90;99.90;;;;;;5034279;28;20077;-76
2022/01/01 02:22:37;;;;;;;6.43;3.40;;;6.90;99.90;;;;;;5032919;28;20075;-76
2022/01/01 02:25:06;;;;;;;4.63;3.70;;;6.90;99.90;;;;;;5033566;28;20378;-76
2022/01/01 02:27:33;;;;;;;5.30;4.00;;;6.90;99.90;;;;;;5034307;28;20032;-76
2022/01/01 02:29:59;;;;;;;8.33;3.60;;;6.90;99.90;;;;;;5032505;28;20037;-76
2022/01/01 02:32:24;;;;;;;5.17;3.60;;;7.00;99.90;;;;;;5034189;28;20026;-76
2022/01/01 02:34:50;;;;;;;6.93;3.30;;;7.00;99.90;;;;;;5034627;28;20049;-76
2022/01/01 02:37:15;;;;;;;6.73;3.10;;;7.00;99.90;;;;;;5034281;28;20057;-76
2022/01/01 02:39:41;;;;;;;4.97;2.97;;;7.10;99.90;;;;;;5032238;28;20029;-77
2022/01/01 02:42:10;;;;;;;3.87;2.60;;;7.10;99.90;;;;;;5036361;28;20049;-77
2022/01/01 02:44:35;;;;;;;5.03;3.30;;;7.20;99.90;;;;;;5053562;28;20025;-76
2022/01/01 02:47:01;;;;;;;3.83;2.70;;;7.20;99.90;;;;;;5053612;28;20032;-76
2022/01/01 02:49:26;;;;;;;4.50;3.23;;;7.20;99.90;;;;;;5053742;28;20439;-76
2022/01/01 02:51:53;;;;;;;4.40;2.83;;;7.30;99.90;;;;;;5043397;28;20071;-83
2022/01/01 02:54:18;;;;;;;4.90;2.80;;;7.40;99.90;;;;;;5049689;28;20133;-83
2022/01/01 02:56:44;;;;;;;4.60;3.20;;;7.50;99.90;;;;;;5053105;28;20092;-83
2022/01/01 02:59:10;;;;;;;6.73;3.40;;;7.60;99.90;;;;;;5052456;28;20021;-82
2022/01/01 03:01:35;;;;;;;5.30;3.00;;;7.60;99.90;;;;;;5040624;28;20032;-82
2022/01/01 03:04:01;;;;;;;4.30;3.07;;;7.60;99.90;;;;;;5032066;28;20360;-82
2022/01/01 03:06:28;;;;;;;4.80;3.07;;;7.60;99.90;;;;;;5032176;28;20091;-83
2022/01/01 03:08:57;;;;;;;5.37;3.40;;;7.50;99.90;;;;;;5031724;28;20084;-82
2022/01/01 03:11:23;;;;;;;4.97;3.20;;;7.50;99.90;;;;;;5032108;28;20025;-83
2022/01/01 03:13:49;;;;;;;4.40;2.80;;;7.40;99.90;;;;;;5031974;28;20419;-83
2022/01/01 03:16:14;;;;;;;5.37;3.70;;;7.40;99.90;;;;;;5031730;28;20091;-83
2022/01/01 03:18:40;;;;;;;5.87;3.33;;;7.30;99.90;;;;;;5031411;28;20056;-83
2022/01/01 03:21:07;;;;;;;5.00;3.00;;;7.20;99.90;;;;;;5031972;28;20018;-83
2022/01/01 03:23:33;;;;;;;4.77;3.43;;;7.20;99.90;;;;;;5031239;28;20033;-82
2022/01/01 03:25:59;;;;;;;5.00;3.60;;;7.10;99.90;;;;;;5031483;28;20022;-82
2022/01/01 03:28:25;;;;;;;5.10;3.03;;;7.10;99.90;;;;;;5031511;28;20029;-83
2022/01/01 03:30:50;;;;;;;6.83;3.43;;;7.00;99.90;;;;;;5035091;28;20025;-83
2022/01/01 03:33:16;;;;;;;7.43;3.43;;;6.90;99.90;;;;;;5051116;28;20112;-83
2022/01/01 03:35:42;;;;;;;7.10;3.43;;;6.90;99.90;;;;;;5050322;28;20017;-83
2022/01/01 03:38:07;;;;;;;6.03;3.63;;;6.80;99.90;;;;;;5050855;28;20021;-83
2022/01/01 03:40:33;;;;;;;6.17;3.83;;;6.80;99.90;;;;;;5045908;28;20084;-83
2022/01/01 03:42:58;;;;;;;5.53;3.50;;;6.80;99.90;;;;;;5022652;28;20046;-82
2022/01/01 03:45:24;;;;;;;5.67;4.00;;;6.80;99.90;;;;;;5026295;28;20030;-82
2022/01/01 03:47:49;;;;;;;4.37;3.13;;;6.80;99.90;;;;;;5011105;28;20053;-82
2022/01/01 03:50:15;;;;;;;5.60;3.70;;;6.80;99.90;;;;;;5015852;28;20463;-83
2022/01/01 03:52:42;;;;;;;4.97;3.83;;;6.80;99.90;;;;;;5050777;28;20049;-82
2022/01/01 03:55:09;;;;;;;5.07;3.40;;;6.80;99.90;;;;;;5050797;28;20023;-82
2022/01/01 03:57:35;;;;;;;6.40;3.43;;;6.80;99.90;;;;;;5050729;28;20017;-82
2022/01/01 04:00:01;;;;;;;4.87;3.53;;;6.90;99.90;;;;;;5048055;28;20434;-83
2022/01/01 04:02:26;;;;;;;4.83;3.43;;;6.80;99.90;;;;;;5030749;28;20088;-82
2022/01/01 04:04:52;;;;;;;5.47;3.90;;;6.90;99.90;;;;;;5030670;28;20040;-82
2022/01/01 04:07:18;;;;;;;6.13;3.43;;;6.80;99.90;;;;;;5030563;28;20451;-82
2022/01/01 04:09:43;;;;;;;5.70;4.07;;;6.80;99.90;;;;;;5030624;28;20105;-82
2022/01/01 04:12:09;;;;;;;5.03;3.10;;;6.70;99.90;;;;;;5050679;28;20804;-82
2022/01/01 04:14:35;;;;;;;5.87;3.40;;;6.70;99.90;;;;;;5050536;28;20025;-82
2022/01/01 04:17:00;;;;;;;6.07;3.67;;;6.70;99.90;;;;;;5050338;28;20032;-81
2022/01/01 04:19:37;;;;;;;5.77;3.53;;;6.60;99.90;;;;;;5050526;28;20033;-83
2022/01/01 04:22:03;;;;;;;4.57;3.47;;;6.60;99.90;;;;;;5049917;28;20342;-83
2022/01/01 04:24:28;;;;;;;4.87;3.70;;;6.50;99.90;;;;;;5049126;28;20021;-84
2022/01/01 04:26:54;;;;;;;5.53;3.30;;;6.50;99.90;;;;;;5050410;28;20025;-83
2022/01/01 04:29:19;;;;;;;5.27;4.03;;;6.40;99.90;;;;;;5050152;28;20083;-83
2022/01/01 04:31:45;;;;;;;5.00;3.30;;;6.40;99.90;;;;;;5045646;28;20036;-83
2022/01/01 04:34:11;;;;;;;5.73;3.50;;;6.30;99.90;;;;;;5050020;28;20077;-83
2022/01/01 04:36:46;;;;;;;6.23;4.00;;;6.30;99.90;;;;;;5049086;28;20032;-83
2022/01/01 04:39:12;;;;;;;7.77;3.60;;;6.20;99.90;;;;;;5049707;28;20047;-83
2022/01/01 04:41:37;;;;;;;6.17;3.57;;;6.10;99.90;;;;;;5040173;28;20125;-83
2022/01/01 04:44:03;;;;;;;6.17;3.60;;;6.10;99.90;;;;;;5019900;28;20033;-83
2022/01/01 04:46:29;;;;;;;6.77;3.50;;;6.00;99.90;;;;;;5030934;28;20029;-83
2022/01/01 04:48:54;;;;;;;7.57;3.80;;;6.00;99.90;;;;;;5030409;28;20420;-83
2022/01/01 04:51:20;;;;;;;4.90;3.27;;;5.90;99.90;;;;;;5030193;28;20051;-83
2022/01/01 04:53:46;;;;;;;7.97;4.30;;;5.90;99.90;;;;;;5029928;28;20091;-83
2022/01/01 04:56:18;;;;;;;6.27;3.73;;;5.80;99.90;;;;;;5039641;28;20025;-83
2022/01/01 04:58:43;;;;;;;5.03;3.80;;;5.80;99.90;;;;;;5048415;28;20029;-84
2022/01/01 05:01:09;;;;;;;6.00;4.10;;;5.80;99.90;;;;;;5050428;28;20040;-83
2022/01/01 05:03:35;;;;;;;8.20;4.43;;;5.70;99.90;;;;;;5049825;28;20036;-83
2022/01/01 05:06:00;;;;;;;6.50;4.20;;;5.70;99.90;;;;;;5049252;28;20072;-83
2022/01/01 05:08:26;;;;;;;6.57;4.20;;;5.60;99.90;;;;;;5049567;28;20025;-83
2022/01/01 05:10:52;;;;;;;7.53;5.37;;;5.50;99.90;;;;;;5049854;28;20032;-83
2022/01/01 05:13:19;;;;;;;7.67;4.30;;;5.50;99.90;;;;;;5049664;28;20108;-83
2022/01/01 05:15:45;;;;;;;7.30;4.33;;;5.40;99.90;;;;;;5044389;28;20013;-83
2022/01/01 05:18:10;;;;;;;7.37;4.50;;;5.40;99.90;;;;;;5029678;28;20022;-83
2022/01/01 05:20:36;;;;;;;8.03;4.03;;;5.30;99.90;;;;;;5029682;28;20022;-83
2022/01/01 05:23:02;;;;;;;7.60;4.40;;;5.20;99.90;;;;;;5028339;28;20084;-83
2022/01/01 05:25:28;;;;;;;7.90;4.00;;;5.20;99.90;;;;;;5030152;28;20017;-83
2022/01/01 05:27:53;;;;;;;7.40;4.37;;;5.20;99.90;;;;;;5029588;28;20048;-83
2022/01/01 05:30:19;;;;;;;10.07;6.43;;;5.10;99.90;;;;;;5028179;28;20083;-84
2022/01/01 05:32:44;;;;;;;11.27;5.20;;;5.10;99.90;;;;;;5029516;28;20101;-83
2022/01/01 05:35:10;;;;;;;6.67;4.73;;;5.00;99.90;;;;;;5030502;28;20136;-83
2022/01/01 05:37:36;;;;;;;8.23;5.20;;;5.00;99.90;;;;;;5042755;28;20033;-83
2022/01/01 05:40:02;;;;;;;6.97;4.67;;;5.00;99.90;;;;;;5029748;28;20076;-83
2022/01/01 05:42:28;;;;;;;8.77;5.00;;;4.90;99.90;;;;;;5019796;28;20049;-83
2022/01/01 05:44:53;;;;;;;6.77;4.47;;;4.90;99.90;;;;;;5024976;28;20033;-83
2022/01/01 05:47:19;;;;;;;6.40;3.80;;;4.90;99.90;;;;;;5029166;28;20065;-83
2022/01/01 05:49:44;;;;;;;6.07;3.83;;;4.80;99.90;;;;;;5029382;28;20030;-83
2022/01/01 05:52:10;;;;;;;10.97;5.03;;;4.80;99.90;;;;;;5028555;28;20084;-83
2022/01/01 05:54:36;;;;;;;7.33;4.40;;;4.70;99.90;;;;;;5029566;28;20075;-83
2022/01/01 05:57:02;;;;;;;6.57;3.80;;;4.70;99.90;;;;;;5040726;28;20386;-83
2022/01/01 05:59:28;;;;;;;8.50;4.67;;;4.70;99.90;;;;;;5050918;28;20029;-83
2022/01/01 06:01:53;;;;;;;6.57;4.07;;;4.70;99.90;;;;;;5053138;28;20832;-83
2022/01/01 06:04:19;;;;;;;6.13;4.13;;;4.60;99.90;;;;;;5052746;28;20070;-83
2022/01/01 06:06:44;;;;;;;6.43;4.13;;;4.60;99.90;;;;;;5035254;28;20086;-83
2022/01/01 06:09:10;;;;;;;8.23;4.83;;;4.50;99.90;;;;;;5032610;28;20160;-84
2022/01/01 06:11:35;;;;;;;6.93;4.73;;;4.40;99.90;;;;;;5032943;28;20026;-84
2022/01/01 06:14:01;;;;;;;8.80;4.23;;;4.40;99.90;;;;;;5032718;28;20026;-84
2022/01/01 06:16:26;;;;;;;8.67;4.00;;;4.30;99.90;;;;;;5047415;28;20539;-84
2022/01/01 06:18:52;;;;;;;9.43;4.20;;;4.30;99.90;;;;;;5033860;28;20056;-84
2022/01/01 06:21:17;;;;;;;6.73;3.90;;;4.30;99.90;;;;;;5032898;28;20033;-84
2022/01/01 06:23:45;;;;;;;6.77;4.03;;;4.30;99.90;;;;;;5031066;28;20059;-82
2022/01/01 06:26:11;;;;;;;6.87;3.97;;;4.30;99.90;;;;;;5044767;28;20801;-82
2022/01/01 06:28:36;;;;;;;6.77;3.80;;;4.30;99.90;;;;;;5037877;28;20140;-82
2022/01/01 06:31:02;;;;;;;6.47;4.60;;;4.30;99.90;;;;;;5032529;28;20052;-82
2022/01/01 06:33:27;;;;;;;6.17;4.20;;;4.40;99.90;;;;;;5030945;28;20079;-82
2022/01/01 06:35:54;;;;;;;7.80;4.13;;;4.40;99.90;;;;;;5032721;28;20490;-83
2022/01/01 06:38:19;;;;;;;6.30;3.63;;;4.30;99.90;;;;;;5032441;28;20033;-83
2022/01/01 06:40:47;;;;;;;5.60;3.27;;;4.30;99.90;;;;;;5032486;28;20040;-82
2022/01/01 06:43:15;;;;;;;7.07;4.07;;;4.30;99.90;;;;;;5016739;28;20054;-82
2022/01/01 06:45:42;;;;;;;5.77;4.03;;;4.30;99.90;;;;;;5042422;28;20035;-83
2022/01/01 06:48:08;;;;;;;6.47;3.90;;;4.30;99.90;;;;;;5052185;28;20041;-83
2022/01/01 06:50:35;;;;;;;7.77;4.20;;;4.30;99.90;;;;;;5052179;28;20090;-83
2022/01/01 06:53:00;;;;;;;4.60;3.50;;;4.30;99.90;;;;;;5043243;28;20108;-83
2022/01/01 06:55:26;;;;;;;6.47;4.20;;;4.30;99.90;;;;;;5032343;28;20117;-83
2022/01/01 06:57:51;;;;;;;6.87;3.87;;;4.30;99.90;;;;;;5030593;28;20025;-83
2022/01/01 07:00:17;;;;;;;8.00;3.77;;;4.30;99.90;;;;;;5031860;28;20029;-83
2022/01/01 07:02:47;;;;;;;7.63;3.73;;;4.30;99.90;;;;;;5031836;28;20546;-83
2022/01/01 07:05:14;;;;;;;6.63;4.10;;;4.30;99.90;;;;;;5040048;28;20389;-83
2022/01/01 07:07:40;;;;;;;6.80;3.37;;;4.20;99.90;;;;;;5051824;28;20100;-84
2022/01/01 07:10:07;;;;;;;5.30;3.57;;;4.20;99.90;;;;;;5041040;28;20038;-84
2022/01/01 07:12:34;;;;;;;6.77;3.80;;;4.10;99.90;;;;;;5030236;28;20124;-84
2022/01/01 07:15:00;;;;;;;6.13;3.50;;;4.10;99.90;;;;;;5030384;28;20036;-83
2022/01/01 07:17:26;;;;;;;6.83;4.33;;;4.10;99.90;;;;;;5031582;28;20025;-83
2022/01/01 07:19:52;;;;;;;6.43;3.50;;;4.00;99.90;;;;;;5038294;28;20040;-83
2022/01/01 07:22:17;;;;;;;6.00;3.53;;;4.00;99.90;;;;;;5047898;28;20498;-83
2022/01/01 07:24:44;;;;;;;5.80;3.80;;;4.00;99.90;;;;;;5031265;28;20091;-83
2022/01/01 07:27:11;;;;;;;8.00;4.37;;;4.00;99.90;;;;;;5031466;28;20740;-83
2022/01/01 07:29:37;;;;;;;8.77;4.23;;;3.90;99.90;;;;;;5034702;28;20450;-83
2022/01/01 07:32:03;;;;;;;7.87;4.20;;;3.90;99.90;;;;;;5030401;28;20087;-82
2022/01/01 07:34:28;;;;;;;9.67;4.47;;;3.90;99.90;;;;;;5031337;28;20029;-83
2022/01/01 07:36:54;;;;;;;7.33;4.10;;;4.00;99.90;;;;;;5031496;28;20731;-83
2022/01/01 07:39:19;;;;;;;6.97;3.90;;;4.00;99.90;;;;;;5036650;28;20076;-83
2022/01/01 07:41:45;;;;;;;7.00;4.57;;;3.90;99.90;;;;;;5040711;28;20086;-83
2022/01/01 07:44:11;;;;;;;7.03;4.40;;;4.00;99.90;;;;;;5031725;28;20026;-83
2022/01/01 07:46:36;;;;;;;5.83;3.77;;;4.00;99.90;;;;;;5011377;28;20047;-82
2022/01/01 07:49:02;;;;;;;5.57;3.50;;;4.00;99.90;;;;;;5017541;28;20041;-83
2022/01/01 07:51:28;;;;;;;4.57;3.27;;;4.10;99.90;;;;;;5051009;28;20167;-83
2022/01/01 07:53:53;;;;;;;10.00;3.40;;;4.20;99.90;;;;;;5050575;28;20040;-83
2022/01/01 07:56:19;;;;;;;9.10;3.80;;;4.20;99.90;;;;;;5050778;28;20146;-83
2022/01/01 07:58:44;;;;;;;5.97;3.23;;;4.30;99.90;;;;;;5049949;28;20186;-83
2022/01/01 08:01:10;;;;;;;7.90;3.10;;;4.30;99.90;;;;;;5029594;28;20026;-83
2022/01/01 08:03:38;;;;;;;4.87;3.13;;;4.40;99.90;;;;;;5042779;28;20119;-83
2022/01/01 08:06:03;;;;;;;7.77;3.60;;;4.60;99.90;;;;;;5050695;28;20025;-83
2022/01/01 08:08:29;;;;;;;6.00;3.30;;;4.60;99.90;;;;;;5048436;28;20036;-84
2022/01/01 08:10:55;;;;;;;5.60;3.60;;;4.70;99.90;;;;;;5015642;28;20390;-81
2022/01/01 08:13:24;;;;;;;5.37;3.33;;;4.70;99.90;;;;;;5021046;28;20034;-81
2022/01/01 08:15:52;;;;;;;8.40;4.00;;;4.80;99.90;;;;;;5022085;28;20496;-65
2022/01/01 08:18:18;;;;;;;6.87;3.53;;;4.80;99.90;;;;;;5018349;28;20382;-79
2022/01/01 08:20:45;;;;;;;7.07;5.00;;;4.80;99.90;;;;;;5024621;28;20040;-79
2022/01/01 08:23:11;;;;;;;5.53;4.17;;;4.90;99.90;;;;;;5028376;28;20520;-78
2022/01/01 08:25:37;;;;;;;5.37;3.93;;;4.90;99.90;;;;;;5029337;28;20029;-78
2022/01/01 08:28:03;;;;;;;5.10;3.83;;;4.90;99.90;;;;;;5028962;28;20036;-78
2022/01/01 08:30:29;;;;;;;5.70;3.57;;;4.90;99.90;;;;;;5028806;28;20030;-79
2022/01/01 08:33:01;;;;;;;5.30;3.90;;;5.00;99.90;;;;;;5028589;28;20052;-79
2022/01/01 08:35:30;;;;;;;6.33;3.97;;;5.00;99.90;;;;;;5027092;28;20023;-79
2022/01/01 08:37:56;;;;;;;6.80;3.77;;;5.00;99.90;;;;;;5029577;28;20017;-77
2022/01/01 08:40:23;;;;;;;6.63;3.57;;;5.00;99.90;;;;;;5031992;28;20124;-78
2022/01/01 08:42:49;;;;;;;9.10;4.20;;;5.10;99.90;;;;;;5028149;28;20091;-78
2022/01/01 08:45:14;;;;;;;6.23;4.03;;;5.10;99.90;;;;;;5028639;28;20489;-78
2022/01/01 08:47:40;;;;;;;7.70;4.97;;;5.20;99.90;;;;;;5032654;28;20497;-74
2022/01/01 08:50:09;;;;;;;7.67;4.23;;;5.20;99.90;;;;;;5031127;28;20041;-77
2022/01/01 08:52:35;;;;;;;8.93;4.60;;;5.30;99.90;;;;;;5013159;28;20026;-76
2022/01/01 08:55:01;;;;;;;6.93;4.20;;;5.30;99.90;;;;;;5013322;28;20036;-76
2022/01/01 08:57:29;;;;;;;5.47;3.73;;;5.40;99.90;;;;;;5022584;28;20037;-76
2022/01/01 08:59:55;;;;;;;6.43;4.13;;;5.50;99.90;;;;;;5029773;28;20037;-79
2022/01/01 09:02:21;;;;;;;10.70;6.17;;;5.60;99.90;;;;;;5029744;28;20041;-79
2022/01/01 09:04:46;;;;;;;15.80;8.07;;;5.70;99.90;;;;;;5028718;28;20124;-79
2022/01/01 09:07:13;;;;;;;10.70;6.83;;;5.80;99.90;;;;;;5030315;28;20036;-79
2022/01/01 09:09:39;;;;;;;7.20;4.67;;;5.80;99.90;;;;;;5029477;28;20829;-79
2022/01/01 09:12:07;;;;;;;9.20;4.23;;;5.90;99.90;;;;;;5033192;28;20105;-79
2022/01/01 09:14:32;;;;;;;8.27;4.70;;;6.00;99.90;;;;;;5030589;28;20860;-79
2022/01/01 09:16:58;;;;;;;7.90;3.50;;;6.20;99.90;;;;;;5033930;28;20079;-79
2022/01/01 09:19:23;;;;;;;6.50;4.00;;;6.30;99.90;;;;;;5026750;28;20054;-79
2022/01/01 09:21:49;;;;;;;10.47;4.87;;;6.40;99.90;;;;;;5009871;28;20095;-80
2022/01/01 09:24:15;;;;;;;7.80;4.53;;;6.40;99.90;;;;;;5029522;28;20497;-79
2022/01/01 09:26:41;;;;;;;7.67;4.40;;;6.50;99.90;;;;;;5030088;28;20029;-79
2022/01/01 09:29:07;;;;;;;9.07;4.63;;;6.60;99.90;;;;;;5027758;28;20028;-79
2022/01/01 09:31:32;;;;;;;7.93;5.40;;;6.70;99.90;;;;;;5029413;28;20025;-79
2022/01/01 09:33:58;;;;;;;6.90;5.03;;;6.80;99.90;;;;;;5029895;28;20025;-80
2022/01/01 09:36:24;;;;;;;8.60;5.27;;;7.00;99.90;;;;;;5032936;28;20029;-80
2022/01/01 09:38:49;;;;;;;10.03;5.30;;;7.10;99.90;;;;;;5033350;28;20037;-79
2022/01/01 09:41:15;;;;;;;9.23;5.57;;;7.20;99.90;;;;;;5031522;28;20037;-80
2022/01/01 09:43:41;;;;;;;9.67;5.73;;;7.30;99.90;;;;;;5026908;28;20106;-79
2022/01/01 09:46:12;;;;;;;9.37;5.40;;;7.30;99.90;;;;;;5030898;28;20083;-79
2022/01/01 09:48:38;;;;;;;9.37;5.57;;;7.40;99.90;;;;;;5032431;28;20036;-80
2022/01/01 09:51:06;;;;;;;7.83;5.47;;;7.50;99.90;;;;;;5032818;28;20040;-79
2022/01/01 09:53:32;;;;;;;9.27;5.30;;;7.70;99.90;;;;;;5031002;28;20097;-80
2022/01/01 09:56:00;;;;;;;9.03;5.40;;;7.80;99.90;;;;;;5032043;28;20025;-79
2022/01/01 09:58:31;;;;;;;7.37;4.77;;;7.80;99.90;;;;;;5031199;28;20056;-80
2022/01/01 10:00:58;;;;;;;15.73;9.43;;;7.90;99.90;;;;;;5034680;28;20029;-79
2022/01/01 10:03:34;;;;;;;10.13;7.17;;;8.00;99.90;;;;;;5038704;28;20121;-79
2022/01/01 10:06:06;;;;;;;8.40;5.70;;;8.00;99.90;;;;;;5036182;28;20144;-78
2022/01/01 10:08:32;;;;;;;9.97;5.97;;;8.20;99.90;;;;;;5032061;28;20044;-78
2022/01/01 10:10:58;;;;;;;9.97;5.20;;;8.50;99.90;;;;;;5032661;28;20025;-78
2022/01/01 10:13:33;;;;;;;8.93;5.13;;;8.90;99.90;;;;;;5030503;28;20486;-78
2022/01/01 10:16:01;;;;;;;6.35;4.43;;;9.20;99.90;;;;;;5032953;28;20021;-80
2022/01/01 10:18:54;;;;;;;6.80;3.90;;;9.50;99.90;;;;;;5028534;28;20104;-81
2022/01/01 10:21:22;;;;;;;6.97;4.20;;;9.60;99.90;;;;;;5026332;28;20041;-80
2022/01/01 10:23:52;;;;;;;7.30;4.67;;;9.70;99.90;;;;;;5033137;28;20466;-80
2022/01/01 10:29:16;;;;;;;8.70;4.73;;;9.90;99.90;;;;;;5015552;28;20096;-79
2022/01/01 10:32:10;;;;;;;7.70;4.37;;;9.90;99.90;;;;;;5022593;28;20382;-79
2022/01/01 10:34:46;;;;;;;7.23;4.27;;;10.10;99.90;;;;;;5020618;28;20525;-80
2022/01/01 10:37:14;;;;;;;8.23;5.03;;;10.10;99.90;;;;;;5014810;28;20661;-79
2022/01/01 10:39:50;;;;;;;10.33;4.50;;;10.10;99.90;;;;;;5013528;28;20038;-78
2022/01/01 10:42:17;;;;;;;9.23;4.27;;;10.20;99.90;;;;;;5024552;28;20369;-78
2022/01/01 10:44:47;;;;;;;6.77;4.50;;;10.20;99.90;;;;;;5018521;28;20403;-78
2022/01/01 10:47:27;;;;;;;7.57;4.03;;;10.20;99.90;;;;;;5027869;28;20408;-79
2022/01/01 10:52:36;;;;;;;6.77;4.17;;;10.30;99.90;;;;;;5012561;28;20104;-78
2022/01/01 10:55:06;;;;;;;5.63;3.97;;;10.40;99.90;;;;;;5012223;28;20073;-78
2022/01/01 10:57:34;;;;;;;6.83;4.27;;;10.40;99.90;;;;;;5012230;28;20552;-78
2022/01/01 11:00:14;;;;;;;7.27;3.70;;;10.50;99.90;;;;;;5012134;28;20029;-78
2022/01/01 11:02:49;;;;;;;6.63;3.80;;;10.60;99.90;;;;;;5012106;28;20033;-78
2022/01/01 11:05:15;;;;;;;6.95;4.40;;;10.70;99.90;;;;;;5012298;28;20121;-78
2022/01/01 11:07:53;;;;;;;5.17;3.87;;;10.70;99.90;;;;;;5011807;28;20045;-78
2022/01/01 11:10:21;;;;;;;5.90;3.50;;;10.80;99.90;;;;;;5012107;28;20049;-79
2022/01/01 11:12:47;;;;;;;7.27;3.50;;;10.80;99.90;;;;;;5011757;28;20108;-79
2022/01/01 11:15:13;;;;;;;11.00;3.63;;;10.80;99.90;;;;;;5011914;28;20788;-79
2022/01/01 11:17:40;;;;;;;5.50;3.80;;;10.90;99.90;;;;;;5010546;28;20379;-79
2022/01/01 11:20:07;;;;;;;6.87;4.30;;;10.90;99.90;;;;;;5011999;28;20475;-79
2022/01/01 11:22:33;;;;;;;5.23;3.40;;;11.00;99.90;;;;;;5011796;28;20033;-79
2022/01/01 11:24:59;;;;;;;5.80;3.20;;;11.10;99.90;;;;;;5011764;28;20029;-79
2022/01/01 11:27:26;;;;;;;5.13;3.43;;;11.20;99.90;;;;;;5011536;28;20033;-79
2022/01/01 11:29:56;;;;;;;4.85;2.63;;;11.30;99.90;;;;;;5011666;28;20029;-79
2022/01/01 11:32:37;;;;;;;6.35;3.15;;;11.40;99.90;;;;;;5011521;28;20117;-79
2022/01/01 11:35:11;;;;;;;4.80;2.97;;;11.70;99.90;;;;;;5011636;28;20025;-79
2022/01/01 11:37:57;;;;;;;5.57;3.30;;;11.70;99.90;;;;;;5010164;28;20634;-79
2022/01/01 11:40:24;;;;;;;5.00;3.35;;;11.70;99.90;;;;;;5011532;28;20109;-79
2022/01/01 11:42:49;;;;;;;4.53;2.80;;;11.70;99.90;;;;;;5019835;28;20054;-79
2022/01/01 11:45:41;;;;;;;4.00;2.42;;;11.70;99.90;;;;;;5032033;28;20029;-78
2022/01/01 11:48:28;;;;;;;5.00;3.00;;;12.20;99.90;;;;;;5029325;28;20075;-79
2022/01/01 11:50:54;;;;;;;7.15;3.55;;;12.10;99.90;;;;;;5011148;28;20109;-79
2022/01/01 11:53:30;;;;;;;4.68;3.00;;;12.10;99.90;;;;;;5010786;28;20486;-79
2022/01/01 11:56:06;;;;;;;4.38;2.92;;;12.40;99.90;;;;;;5011207;28;20050;-79
2022/01/01 11:58:48;;;;;;;5.93;3.10;;;12.40;99.90;;;;;;5021786;28;20059;-79
2022/01/01 12:01:22;;;;;;;5.22;3.42;;;12.60;99.90;;;;;;5037081;28;20044;-79
2022/01/01 12:03:53;;;;;;;7.55;3.45;;;12.80;99.90;;;;;;5037516;28;20030;-79
2022/01/01 12:06:20;;;;;;;4.47;3.33;;;13.10;99.90;;;;;;5034483;28;20095;-74
2022/01/01 12:08:48;;;;;;;6.35;3.65;;;13.30;99.90;;;;;;5033669;28;20359;-75
2022/01/01 12:11:32;;;;;;;6.38;3.38;;;13.30;99.90;;;;;;5033485;28;20481;-75
2022/01/01 12:13:59;;;;;;;5.72;3.05;;;13.10;99.90;;;;;;5031347;28;20021;-75
2022/01/01 12:16:26;;;;;;;4.78;2.90;;;13.00;99.90;;;;;;5032512;28;20432;-75
2022/01/01 12:19:04;;;;;;;5.10;3.25;;;13.10;99.90;;;;;;5033618;28;20049;-76
2022/01/01 12:21:38;;;;;;;5.00;3.20;;;13.50;99.90;;;;;;5033829;28;20437;-75
2022/01/01 12:24:08;;;;;;;5.68;3.15;;;13.40;99.90;;;;;;5032006;28;20030;-76
2022/01/01 12:26:34;;;;;;;4.82;3.30;;;13.30;99.90;;;;;;5033772;28;20025;-76
2022/01/01 12:29:07;;;;;;;6.45;3.38;;;13.80;99.90;;;;;;5033452;28;20037;-76
2022/01/01 12:31:33;;;;;;;5.05;3.03;;;13.80;99.90;;;;;;5033366;28;20026;-76
2022/01/01 12:34:09;;;;;;;6.05;3.40;;;14.00;99.90;;;;;;5033676;28;20026;-77
2022/01/01 12:36:35;;;;;;;5.82;3.30;;;13.80;99.90;;;;;;5032419;28;20028;-77
2022/01/01 12:39:05;;;;;;;5.47;3.40;;;13.80;99.90;;;;;;5033729;28;20438;-77
2022/01/01 12:41:41;;;;;;;5.82;3.40;;;13.70;99.90;;;;;;5033260;28;20490;-77
2022/01/01 12:44:11;;;;;;;4.75;3.20;;;13.80;99.90;;;;;;5033374;28;20041;-77
2022/01/01 12:46:39;;;;;;;4.25;3.03;;;13.70;99.90;;;;;;5033527;28;20087;-77
2022/01/01 12:49:08;;;;;;;7.07;3.35;;;13.50;99.90;;;;;;5033045;28;20025;-77
2022/01/01 12:51:37;;;;;;;6.28;3.50;;;13.60;99.90;;;;;;5032117;28;20091;-77
2022/01/01 12:54:09;;;;;;;4.50;2.75;;;13.80;99.90;;;;;;5033343;28;20017;-77
2022/01/01 12:56:36;;;;;;;3.63;2.47;;;13.60;99.90;;;;;;5033474;28;20026;-77
2022/01/01 12:59:09;;;;;;;5.90;2.78;;;13.50;99.90;;;;;;5031664;28;20492;-78
2022/01/01 13:01:37;;;;;;;4.22;2.88;;;13.50;99.90;;;;;;5033163;28;20039;-77
2022/01/01 13:04:25;;;;;;;5.57;3.42;;;13.40;99.90;;;;;;5032957;28;20109;-79
2022/01/01 13:06:57;;;;;;;6.18;3.13;;;13.30;99.90;;;;;;5033091;28;20040;-78